createdAt,value
2019-05-19T10:58:42.128Z,100137.54
2019-05-19T11:01:11.350Z,100131.07
2019-05-19T11:03:40.583Z,100133.47
2019-05-19T11:06:09.912Z,100131.99
2019-05-19T11:08:39.142Z,100127.42
2019-05-19T11:11:08.460Z,100133.54
2019-05-19T11:13:37.657Z,100133.54
2019-05-19T11:16:06.928Z,100129.59
2019-05-19T11:18:36.081Z,100134.23
2019-05-19T11:21:05.346Z,100128.10
2019-05-19T11:23:34.625Z,100130.14
2019-05-19T11:26:04.062Z,100134.47
2019-05-19T11:28:33.264Z,100127.72
2019-05-19T11:31:02.580Z,100138.38
2019-05-19T11:33:33.004Z,100130.31
2019-05-19T11:36:02.317Z,100126.25
2019-05-19T11:38:31.502Z,100125.93
2019-05-19T11:41:00.720Z,100118.32
2019-05-19T11:43:29.951Z,100120.22
2019-05-19T11:45:59.286Z,100113.56
2019-05-19T11:48:29.575Z,100116.70
2019-05-19T11:50:59.007Z,100119.24
2019-05-19T11:53:28.151Z,100117.12
2019-05-19T11:56:06.197Z,100115.62
2019-05-19T11:58:28.769Z,100100.98
2019-05-19T12:00:57.985Z,100097.61
2019-05-19T12:03:27.163Z,100095.31
2019-05-19T12:05:56.356Z,100096.50
2019-05-19T12:08:25.572Z,100093.16
2019-05-19T12:10:54.800Z,100090.23
2019-05-19T12:13:23.984Z,100088.61
2019-05-19T12:15:53.148Z,100088.20
2019-05-19T12:18:22.397Z,100092.40
2019-05-19T12:20:51.629Z,100085.38
2019-05-19T12:23:20.843Z,100084.66
2019-05-19T12:25:50.048Z,100091.26
2019-05-19T12:28:19.224Z,100085.66
2019-05-19T12:30:48.426Z,100080.70
2019-05-19T12:33:17.579Z,100078.46
2019-05-19T12:35:46.799Z,100085.77
2019-05-19T12:38:15.997Z,100074.80
2019-05-19T12:40:45.145Z,100068.43
2019-05-19T12:43:14.380Z,100069.52
2019-05-19T12:45:43.736Z,100071.39
2019-05-19T12:48:13.118Z,100069.98
2019-05-19T12:50:42.485Z,100069.20
2019-05-19T12:53:11.825Z,100062.48
2019-05-19T12:55:40.987Z,100060.55
2019-05-19T12:58:10.166Z,100059.73
2019-05-19T13:00:40.187Z,100057.81
2019-05-19T13:03:09.466Z,100051.36
2019-05-19T13:05:38.676Z,100057.06
2019-05-19T13:08:11.364Z,100050.72
2019-05-19T13:10:39.203Z,100060.77
2019-05-19T13:13:08.427Z,100047.88
2019-05-19T13:15:37.786Z,100047.41
2019-05-19T13:18:06.996Z,100040.97
2019-05-19T13:20:36.350Z,100046.42
2019-05-19T13:23:05.556Z,100047.64
2019-05-19T13:25:37.053Z,100047.95
2019-05-19T13:28:06.280Z,100041.45
2019-05-19T13:30:35.512Z,100037.61
2019-05-19T13:33:05.397Z,100038.86
2019-05-19T13:35:34.633Z,100037.19
2019-05-19T13:38:03.967Z,100035.80
2019-05-19T13:40:33.317Z,100047.36
2019-05-19T13:43:02.504Z,100041.19
2019-05-19T13:45:31.887Z,100035.37
2019-05-19T13:48:03.015Z,100035.37
2019-05-19T13:50:32.397Z,100036.42
2019-05-19T13:53:01.656Z,100031.56
2019-05-19T13:55:30.905Z,100037.25
2019-05-19T13:58:00.102Z,100035.81
2019-05-19T14:00:29.254Z,100031.22
2019-05-19T14:02:58.449Z,100019.89
2019-05-19T14:05:27.645Z,100030.61
2019-05-19T14:07:58.939Z,100021.22
2019-05-19T14:10:28.129Z,100025.25
2019-05-19T14:12:56.361Z,100013.65
2019-05-19T14:15:24.602Z,100014.30
2019-05-19T14:17:53.359Z,100007.80
2019-05-19T14:20:21.569Z,100007.36
2019-05-19T14:22:49.841Z,100002.94
2019-05-19T14:25:18.093Z,100010.32
2019-05-19T14:27:46.315Z,100002.97
2019-05-19T14:30:14.582Z,99998.34
2019-05-19T14:32:42.843Z,100000.33
2019-05-19T14:35:11.099Z,100005.29
2019-05-19T14:37:40.238Z,100004.98
2019-05-19T14:40:09.856Z,100007.28
2019-05-19T14:43:00.741Z,100007.00
2019-05-19T14:45:30.174Z,100006.81
2019-05-19T14:47:59.448Z,100005.30
2019-05-19T14:50:30.295Z,100004.73
2019-05-19T14:52:59.688Z,100012.47
2019-05-19T14:55:29.059Z,100004.77
2019-05-19T14:57:58.322Z,100002.16
2019-05-19T15:00:27.505Z,100006.66
2019-05-19T15:02:56.737Z,100001.31
2019-05-19T15:05:25.974Z,100005.33
2019-05-19T15:07:55.293Z,100008.70
2019-05-19T15:10:24.498Z,99998.91
2019-05-19T15:12:53.834Z,100000.35
2019-05-19T15:15:23.000Z,100001.75
2019-05-19T15:17:52.207Z,99997.61
2019-05-19T15:20:21.458Z,99998.47
2019-05-19T15:22:50.755Z,100001.34
2019-05-19T15:25:19.985Z,100002.88
2019-05-19T15:27:59.755Z,100001.20
2019-05-19T15:30:20.103Z,100001.17
2019-05-19T15:32:49.379Z,99997.34
2019-05-19T15:35:18.650Z,99992.36
2019-05-19T15:37:47.865Z,99994.72
2019-05-19T15:40:17.127Z,99992.66
2019-05-19T15:42:46.275Z,99991.41
2019-05-19T15:45:15.621Z,99992.70
2019-05-19T15:47:45.049Z,99990.23
2019-05-19T15:50:14.251Z,99995.73
2019-05-19T15:52:43.612Z,100015.16
2019-05-19T15:55:12.922Z,100019.02
2019-05-19T15:57:45.050Z,100018.96
2019-05-19T16:00:14.808Z,100033.72
2019-05-19T16:02:44.093Z,100068.72
2019-05-19T16:05:13.513Z,100064.62
2019-05-19T16:07:44.660Z,100044.20
2019-05-19T16:10:14.727Z,100029.27
2019-05-19T16:12:43.916Z,100034.36
2019-05-19T16:15:15.304Z,100035.60
2019-05-19T16:17:44.516Z,100022.30
2019-05-19T16:20:17.234Z,100016.80
2019-05-19T16:22:46.465Z,100010.73
2019-05-19T16:25:15.634Z,100009.45
2019-05-19T16:27:44.958Z,100002.48
2019-05-19T16:30:14.347Z,100017.13
2019-05-19T16:32:43.604Z,100008.59
2019-05-19T16:35:12.940Z,100007.33
2019-05-19T16:37:42.725Z,100015.69
2019-05-19T16:40:12.164Z,100026.27
2019-05-19T16:42:41.322Z,100033.31
2019-05-19T16:45:10.742Z,100034.26
2019-05-19T16:47:39.929Z,100034.95
2019-05-19T16:50:09.294Z,100040.08
2019-05-19T16:52:38.475Z,100040.03
2019-05-19T16:55:23.294Z,100034.50
2019-05-19T16:57:52.472Z,100034.75
2019-05-19T17:00:22.327Z,100038.35
2019-05-19T17:02:51.568Z,100044.52
2019-05-19T17:05:20.883Z,100044.23
2019-05-19T17:07:50.146Z,100048.53
2019-05-19T17:10:19.625Z,100048.84
2019-05-19T17:12:48.975Z,100046.97
2019-05-19T17:15:18.524Z,100051.17
2019-05-19T17:17:47.850Z,100064.55
2019-05-19T17:20:17.172Z,100074.55
2019-05-19T17:22:46.382Z,100070.45
2019-05-19T17:25:15.652Z,100075.58
2019-05-19T17:27:44.866Z,100075.40
2019-05-19T17:30:14.645Z,100084.32
2019-05-19T17:32:45.730Z,100093.88
2019-05-19T17:35:16.226Z,100099.45
2019-05-19T17:37:45.566Z,100104.03
2019-05-19T17:40:15.664Z,100102.70
2019-05-19T17:42:44.923Z,100097.19
2019-05-19T17:45:15.388Z,100096.94
2019-05-19T17:47:44.964Z,100097.52
2019-05-19T17:50:15.662Z,100097.77
2019-05-19T17:52:44.956Z,100105.91
2019-05-19T17:55:15.697Z,100112.41
2019-05-19T17:57:45.345Z,100115.98
2019-05-19T18:00:18.320Z,100119.91
2019-05-19T18:02:49.017Z,100127.78
2019-05-19T18:05:21.455Z,100129.06
2019-05-19T18:07:51.167Z,100145.49
2019-05-19T18:10:21.464Z,100145.55
2019-05-19T18:12:54.681Z,100148.42
2019-05-19T18:15:24.253Z,100152.92
2019-05-19T18:17:55.762Z,100159.17
2019-05-19T18:20:25.079Z,100156.33
2019-05-19T18:22:57.031Z,100154.88
2019-05-19T18:25:29.852Z,100149.48
2019-05-19T18:27:59.754Z,100151.47
2019-05-19T18:30:29.596Z,100159.66
2019-05-19T18:32:59.223Z,100149.59
2019-05-19T18:35:29.736Z,100152.23
2019-05-19T18:38:02.633Z,100154.17
2019-05-19T18:40:32.211Z,100154.12
2019-05-19T18:43:04.125Z,100154.32
2019-05-19T18:45:33.402Z,100157.73
2019-05-19T18:48:02.885Z,100149.54
2019-05-19T18:50:32.296Z,100151.69
2019-05-19T18:53:09.138Z,100154.75
2019-05-19T18:55:40.286Z,100144.50
2019-05-19T18:58:10.989Z,100155.03
2019-05-19T19:00:40.563Z,100147.77
2019-05-19T19:03:10.111Z,100149.28
2019-05-19T19:05:39.883Z,100152.52
2019-05-19T19:08:09.685Z,100146.65
2019-05-19T19:10:39.419Z,100154.12
2019-05-19T19:13:09.133Z,100154.61
2019-05-19T19:15:41.643Z,100158.70
2019-05-19T19:18:11.947Z,100156.27
2019-05-19T19:20:41.754Z,100160.08
2019-05-19T19:23:11.514Z,100160.77
2019-05-19T19:25:40.969Z,100161.73
2019-05-19T19:28:10.722Z,100163.54
2019-05-19T19:30:40.166Z,100165.00
2019-05-19T19:33:09.477Z,100162.02
2019-05-19T19:35:39.764Z,100159.88
2019-05-19T19:38:13.163Z,100159.53
2019-05-19T19:40:42.395Z,100165.14
2019-05-19T19:43:11.875Z,100166.80
2019-05-19T19:45:41.442Z,100177.48
2019-05-19T19:48:11.921Z,100182.47
2019-05-19T19:50:43.037Z,100178.52
2019-05-19T19:53:12.951Z,100180.66
2019-05-19T19:55:43.058Z,100182.13
2019-05-19T19:58:13.789Z,100184.55
2019-05-19T20:00:44.963Z,100185.05
2019-05-19T20:03:16.495Z,100189.22
2019-05-19T20:05:47.487Z,100187.27
2019-05-19T20:08:17.095Z,100188.84
2019-05-19T20:10:48.407Z,100187.56
2019-05-19T20:13:19.029Z,100184.27
2019-05-19T20:15:48.801Z,100177.14
2019-05-19T20:18:18.314Z,100176.25
2019-05-19T20:20:47.584Z,100184.84
2019-05-19T20:23:16.798Z,100186.70
2019-05-19T20:25:46.017Z,100190.19
2019-05-19T20:28:16.266Z,100181.43
2019-05-19T20:30:45.505Z,100184.16
2019-05-19T20:33:14.743Z,100179.28
2019-05-19T20:35:46.548Z,100185.10
2019-05-19T20:38:16.405Z,100184.13
2019-05-19T20:40:46.924Z,100179.63
2019-05-19T20:43:16.147Z,100184.90
2019-05-19T20:45:45.425Z,100185.75
2019-05-19T20:48:15.034Z,100191.00
2019-05-19T20:50:44.384Z,100194.95
2019-05-19T20:53:13.572Z,100195.92
2019-05-19T20:55:42.838Z,100195.78
2019-05-19T20:58:12.178Z,100205.98
2019-05-19T21:00:49.941Z,100207.06
2019-05-19T21:03:12.982Z,100220.67
2019-05-19T21:05:42.155Z,100227.89
2019-05-19T21:08:11.459Z,100232.88
2019-05-19T21:10:40.916Z,100231.61
2019-05-19T21:13:10.268Z,100228.00
2019-05-19T21:15:39.604Z,100223.78
2019-05-19T21:18:08.860Z,100232.11
2019-05-19T21:20:38.113Z,100227.23
2019-05-19T21:23:07.286Z,100222.95
2019-05-19T21:25:36.747Z,100215.73
2019-05-19T21:28:05.989Z,100215.27
2019-05-19T21:30:35.492Z,100227.45
2019-05-19T21:33:05.894Z,100218.38
2019-05-19T21:35:35.308Z,100220.25
2019-05-19T21:38:05.616Z,100217.27
2019-05-19T21:40:34.822Z,100212.89
2019-05-19T21:43:04.089Z,100211.38
2019-05-19T21:45:33.260Z,100208.14
2019-05-19T21:48:02.625Z,100197.44
2019-05-19T21:50:31.821Z,100195.72
2019-05-19T21:53:00.992Z,100192.03
2019-05-19T21:55:30.209Z,100198.09
2019-05-19T21:57:59.410Z,100193.58
2019-05-19T22:00:30.696Z,100185.81
2019-05-19T22:02:59.995Z,100177.23
2019-05-19T22:05:29.191Z,100182.49
2019-05-19T22:08:07.899Z,100178.86
2019-05-19T22:10:37.215Z,100181.52
2019-05-19T22:13:06.415Z,100185.93
2019-05-19T22:15:35.824Z,100180.95
2019-05-19T22:18:05.427Z,100180.46
2019-05-19T22:20:34.972Z,100188.16
2019-05-19T22:23:04.183Z,100192.39
2019-05-19T22:25:33.386Z,100189.55
2019-05-19T22:28:02.655Z,100184.77
2019-05-19T22:30:31.967Z,100196.70
2019-05-19T22:33:01.125Z,100190.47
2019-05-19T22:35:30.297Z,100189.77
2019-05-19T22:37:59.502Z,100188.14
2019-05-19T22:40:28.670Z,100183.99
2019-05-19T22:42:57.912Z,100188.56
2019-05-19T22:45:27.203Z,100191.34
2019-05-19T22:47:56.510Z,100184.96
2019-05-19T22:50:25.711Z,100184.34
2019-05-19T22:52:54.990Z,100177.16
2019-05-19T22:55:24.159Z,100176.53
2019-05-19T22:57:53.482Z,100178.87
2019-05-19T23:00:22.964Z,100182.75
2019-05-19T23:02:52.157Z,100177.83
2019-05-19T23:05:21.341Z,100179.63
2019-05-19T23:07:51.800Z,100180.19
2019-05-19T23:10:22.511Z,100174.03
2019-05-19T23:12:51.687Z,100166.73
2019-05-19T23:15:21.164Z,100169.09
2019-05-19T23:17:50.502Z,100167.22
2019-05-19T23:20:19.643Z,100166.25
2019-05-19T23:22:48.934Z,100164.73
2019-05-19T23:25:18.246Z,100163.71
2019-05-19T23:27:49.264Z,100169.66
2019-05-19T23:30:18.822Z,100161.65
2019-05-19T23:32:47.989Z,100161.50
2019-05-19T23:35:17.337Z,100160.27
2019-05-19T23:37:46.450Z,100156.16
2019-05-19T23:40:15.756Z,100165.36
2019-05-19T23:42:44.912Z,100157.16
2019-05-19T23:45:14.082Z,100157.91
2019-05-19T23:47:43.504Z,100154.32
2019-05-19T23:50:12.913Z,100153.06
2019-05-19T23:52:42.166Z,100154.17
2019-05-19T23:55:13.794Z,100155.48
2019-05-19T23:57:42.960Z,100161.84
